Time;durP1;ratioP1;P1;durP2;ratioP2;P2;SDS_P1;SDS_P2;PMS_P1;PMS_P2;Temp;Humidity;BMP_temperature;BMP_pressure;BME280_temperature;BME280_humidity;BME280_pressure;Samples;Min_cycle;Max_cycle;Signal;HPM_P1;HPM_P2
2023/08/27 00:01:57;;;;;;;2.90;1.60;;;21.50;90.70;20.80;96055.00;;;;5022026;28;20285;-85
2023/08/27 00:04:25;;;;;;;1.83;1.70;;;21.40;90.70;20.80;96053.00;;;;5021215;28;20198;-85
2023/08/27 00:06:52;;;;;;;4.10;1.70;;;21.40;90.80;20.80;96059.00;;;;5022464;28;20229;-85
2023/08/27 00:09:19;;;;;;;2.23;1.27;;;21.40;90.90;20.80;96028.00;;;;5042744;28;20261;-85
2023/08/27 00:11:46;;;;;;;2.50;1.20;;;21.40;90.90;20.80;96019.00;;;;5037640;28;20281;-85
2023/08/27 00:14:14;;;;;;;1.40;1.20;;;21.40;90.90;20.80;96025.00;;;;5038600;28;20217;-85
2023/08/27 00:16:42;;;;;;;1.40;1.10;;;21.40;90.90;20.80;96017.00;;;;5039659;28;20210;-84
2023/08/27 00:19:14;;;;;;;1.23;1.13;;;21.40;91.00;20.80;96015.00;;;;5032513;28;20221;-85
2023/08/27 00:21:42;;;;;;;1.57;1.20;;;21.40;91.00;20.80;96000.00;;;;5019220;28;20301;-85
2023/08/27 00:24:09;;;;;;;1.60;1.37;;;21.40;90.90;20.80;96006.00;;;;5026274;28;20201;-85
2023/08/27 00:26:37;;;;;;;1.53;1.30;;;21.40;91.00;20.80;96008.00;;;;5025474;28;20225;-85
2023/08/27 00:29:04;;;;;;;3.73;1.70;;;21.40;91.00;20.80;96002.00;;;;5033029;28;20201;-85
2023/08/27 00:31:31;;;;;;;1.60;1.50;;;21.40;91.00;20.80;95997.00;;;;5024680;28;20219;-86
2023/08/27 00:34:00;;;;;;;3.10;1.60;;;21.40;91.10;20.80;95983.00;;;;5025185;28;20198;-85
2023/08/27 00:36:27;;;;;;;1.40;1.30;;;21.40;91.10;20.80;95983.00;;;;5024894;28;20587;-84
2023/08/27 00:38:55;;;;;;;1.80;1.40;;;21.40;91.20;20.80;95986.00;;;;5012727;28;20253;-85
2023/08/27 00:41:22;;;;;;;1.80;1.47;;;21.40;91.20;20.90;95983.00;;;;5010763;28;20198;-85
2023/08/27 00:43:50;;;;;;;1.67;1.57;;;21.50;91.30;20.90;95976.00;;;;5026255;28;20240;-85
2023/08/27 00:46:17;;;;;;;1.50;1.40;;;21.50;91.30;20.90;95977.00;;;;5027498;28;20304;-85
2023/08/27 00:48:45;;;;;;;2.60;1.70;;;21.50;91.30;20.90;95973.00;;;;5016776;28;20244;-85
2023/08/27 00:51:14;;;;;;;2.00;1.63;;;21.50;91.30;20.90;95967.00;;;;5023132;28;20197;-85
2023/08/27 00:53:41;;;;;;;1.63;1.53;;;21.50;91.30;20.90;95956.00;;;;4986985;28;20198;-85
2023/08/27 00:56:09;;;;;;;1.40;1.30;;;21.50;91.30;20.90;95946.00;;;;5028231;28;20223;-85
2023/08/27 00:58:36;;;;;;;2.00;1.50;;;21.50;91.30;20.90;95940.00;;;;5021272;28;20221;-85
2023/08/27 01:01:05;;;;;;;1.90;1.70;;;21.60;91.40;21.00;95947.00;;;;5019483;28;20201;-85
2023/08/27 01:03:32;;;;;;;1.97;1.47;;;21.60;91.30;21.00;95950.00;;;;5022730;28;20202;-85
2023/08/27 01:06:00;;;;;;;1.80;1.70;;;21.60;91.30;21.00;95950.00;;;;5023541;28;20216;-85
2023/08/27 01:08:43;;;;;;;1.83;1.60;;;21.60;91.20;21.00;95932.00;;;;5027358;28;20593;-85
2023/08/27 01:11:23;;;;;;;1.63;1.53;;;21.60;91.10;21.00;95925.00;;;;5018968;28;20284;-84
2023/08/27 01:13:57;;;;;;;2.00;1.70;;;21.60;91.10;21.00;95922.00;;;;5020583;28;20205;-85
2023/08/27 01:16:27;;;;;;;1.97;1.50;;;21.70;91.10;21.00;95922.00;;;;5028387;28;20303;-85
2023/08/27 01:18:57;;;;;;;2.70;1.40;;;21.60;91.20;21.00;95896.00;;;;5023699;28;20252;-84
2023/08/27 01:21:27;;;;;;;1.50;1.40;;;21.60;91.30;21.00;95903.00;;;;5023677;28;20718;-85
2023/08/27 01:23:54;;;;;;;3.17;1.73;;;21.60;91.30;21.00;95908.00;;;;5023926;28;20638;-84
2023/08/27 01:26:28;;;;;;;1.47;1.37;;;21.70;91.40;21.00;95911.00;;;;5022592;28;20217;-84
2023/08/27 01:29:06;;;;;;;1.47;1.20;;;21.70;91.40;21.00;95893.00;;;;5025955;28;20211;-84
2023/08/27 01:31:40;;;;;;;1.60;1.50;;;21.70;91.30;21.00;95890.00;;;;5015089;28;20213;-84
2023/08/27 01:34:08;;;;;;;1.87;1.60;;;21.70;91.30;21.10;95897.00;;;;5023522;28;20718;-84
2023/08/27 01:36:38;;;;;;;1.40;1.30;;;21.70;91.30;21.10;95886.00;;;;5025362;28;20219;-84
2023/08/27 01:39:05;;;;;;;1.50;1.40;;;21.70;91.30;21.10;95883.00;;;;5023437;28;20622;-84
2023/08/27 01:41:33;;;;;;;6.30;2.20;;;21.70;91.40;21.10;95892.00;;;;5020045;28;20193;-83
2023/08/27 01:44:00;;;;;;;2.10;1.80;;;21.70;91.40;21.10;95890.00;;;;5018437;28;20191;-83
2023/08/27 01:46:27;;;;;;;18.00;2.97;;;21.70;91.30;21.00;95893.00;;;;5021968;28;20736;-84
2023/08/27 01:48:55;;;;;;;2.17;1.70;;;21.70;91.30;21.00;95903.00;;;;5023392;28;20725;-84
2023/08/27 01:51:22;;;;;;;3.13;1.73;;;21.70;91.20;21.00;95915.00;;;;5013679;28;20193;-84
2023/08/27 01:53:50;;;;;;;1.80;1.70;;;21.70;91.30;20.90;95915.00;;;;5026131;28;20197;-84
2023/08/27 01:56:18;;;;;;;1.63;1.40;;;21.70;91.30;20.90;95908.00;;;;5026620;28;20214;-84
2023/08/27 01:58:45;;;;;;;3.00;1.67;;;21.70;91.40;20.90;95902.00;;;;5023746;28;20214;-84
2023/08/27 02:01:12;;;;;;;1.50;1.40;;;21.70;91.50;20.90;95890.00;;;;5031985;28;20280;-84
2023/08/27 02:03:39;;;;;;;3.67;2.00;;;21.60;91.60;20.90;95874.00;;;;5034041;28;20201;-84
2023/08/27 02:06:06;;;;;;;2.43;1.83;;;21.60;91.60;20.90;95870.00;;;;5029337;28;20222;-85
2023/08/27 02:08:33;;;;;;;2.87;1.70;;;21.60;91.60;20.90;95866.00;;;;5023360;28;20220;-85
2023/08/27 02:11:02;;;;;;;2.27;1.80;;;21.60;91.60;20.90;95882.00;;;;5003460;28;20577;-85
2023/08/27 02:13:30;;;;;;;3.00;1.83;;;21.60;91.70;20.90;95905.00;;;;5022940;28;20204;-85
2023/08/27 02:15:57;;;;;;;2.67;1.77;;;21.60;91.70;20.90;95892.00;;;;5020622;28;20218;-85
2023/08/27 02:18:24;;;;;;;1.90;1.80;;;21.60;91.80;20.90;95890.00;;;;5015225;28;20228;-85
2023/08/27 02:20:56;;;;;;;2.50;1.60;;;21.60;91.80;20.90;95891.00;;;;5025019;28;20199;-85
2023/08/27 02:23:23;;;;;;;2.00;1.40;;;21.60;91.80;20.90;95870.00;;;;5017140;28;20190;-85
2023/08/27 02:25:51;;;;;;;1.90;1.70;;;21.60;91.80;20.90;95874.00;;;;5032941;28;20576;-85
2023/08/27 02:28:20;;;;;;;3.60;1.70;;;21.60;91.90;20.90;95880.00;;;;5028455;28;20202;-86
2023/08/27 02:30:52;;;;;;;2.27;1.53;;;21.60;91.90;20.90;95884.00;;;;5031550;28;20228;-86
2023/08/27 02:33:19;;;;;;;2.90;1.60;;;21.70;91.90;21.00;95889.00;;;;5038749;28;20202;-86
2023/08/27 02:35:47;;;;;;;1.93;1.77;;;21.70;91.90;20.90;95892.00;;;;5049406;28;20265;-85
2023/08/27 02:38:14;;;;;;;2.37;1.47;;;21.60;91.80;20.90;95883.00;;;;5043889;28;20226;-85
2023/08/27 02:40:42;;;;;;;2.17;1.67;;;21.70;91.90;20.90;95871.00;;;;5041409;28;20220;-86
2023/08/27 02:43:11;;;;;;;1.60;1.50;;;21.70;91.90;20.90;95856.00;;;;5034954;28;20197;-85
2023/08/27 02:45:40;;;;;;;2.47;1.50;;;21.60;91.90;21.00;95860.00;;;;5026435;28;20217;-86
2023/08/27 02:48:07;;;;;;;2.93;1.67;;;21.70;91.90;21.00;95860.00;;;;5026546;28;20236;-85
2023/08/27 02:50:35;;;;;;;1.97;1.60;;;21.60;91.80;20.90;95866.00;;;;5031252;28;20212;-86
2023/08/27 02:53:02;;;;;;;3.03;1.77;;;21.60;91.80;21.00;95871.00;;;;5022852;28;20216;-86
2023/08/27 02:55:32;;;;;;;2.27;1.70;;;21.70;91.80;21.00;95871.00;;;;5031868;28;20602;-86
2023/08/27 02:58:00;;;;;;;2.20;1.83;;;21.70;91.80;21.00;95870.00;;;;5035076;28;22188;-86
2023/08/27 03:00:28;;;;;;;2.13;1.60;;;21.70;91.80;20.90;95870.00;;;;5022204;28;20198;-85
2023/08/27 03:02:57;;;;;;;2.03;1.70;;;21.60;91.80;20.90;95876.00;;;;5021498;28;20194;-87
2023/08/27 03:05:27;;;;;;;2.10;2.00;;;21.60;91.80;21.00;95886.00;;;;5006173;28;20221;-87
2023/08/27 03:07:54;;;;;;;1.80;1.70;;;21.60;91.80;21.00;95884.00;;;;5024240;28;20237;-85
2023/08/27 03:10:22;;;;;;;1.67;1.57;;;21.60;92.10;21.00;95899.00;;;;5021076;28;20194;-85
2023/08/27 03:12:49;;;;;;;1.70;1.60;;;21.60;91.80;21.00;95899.00;;;;5017505;28;20197;-85
2023/08/27 03:15:16;;;;;;;1.90;1.80;;;21.60;91.80;21.00;95903.00;;;;5024044;28;20223;-85
2023/08/27 03:17:44;;;;;;;4.27;2.00;;;21.60;91.90;21.00;95902.00;;;;5018619;28;20205;-86
2023/08/27 03:20:13;;;;;;;2.20;2.00;;;21.70;92.00;21.00;95901.00;;;;5027089;28;20229;-86
2023/08/27 03:22:40;;;;;;;2.73;1.70;;;21.70;92.00;21.00;95904.00;;;;5021930;28;20197;-87
2023/08/27 03:25:08;;;;;;;2.00;1.77;;;21.70;92.00;21.00;95896.00;;;;5021420;28;20214;-85
2023/08/27 03:27:36;;;;;;;2.17;2.00;;;21.70;92.10;21.00;95904.00;;;;5005459;28;20205;-86
2023/08/27 03:30:04;;;;;;;2.40;2.00;;;21.70;92.30;21.00;95906.00;;;;5029108;28;20289;-85
2023/08/27 03:32:31;;;;;;;2.37;2.00;;;21.70;92.00;21.00;95910.00;;;;5025273;28;20202;-85
2023/08/27 03:34:58;;;;;;;2.43;1.90;;;21.70;92.00;21.10;95915.00;;;;5025494;28;20197;-86
2023/08/27 03:37:27;;;;;;;2.57;1.87;;;21.70;92.00;21.10;95917.00;;;;5020551;28;20208;-86
2023/08/27 03:39:54;;;;;;;1.90;1.80;;;21.70;92.00;21.10;95919.00;;;;5004852;28;20244;-86
2023/08/27 03:42:21;;;;;;;2.37;2.10;;;21.70;92.00;21.10;95925.00;;;;5028947;28;20198;-86
2023/08/27 03:44:49;;;;;;;1.80;1.70;;;21.70;92.00;21.10;95928.00;;;;5018116;28;20198;-87
2023/08/27 03:47:17;;;;;;;2.17;2.03;;;21.70;92.00;21.10;95933.00;;;;5024418;28;20305;-86
2023/08/27 03:49:44;;;;;;;1.93;1.80;;;21.70;92.10;21.10;95934.00;;;;5024566;28;20229;-86
2023/08/27 03:52:11;;;;;;;2.20;2.00;;;21.70;92.10;21.10;95934.00;;;;5025443;28;20197;-85
2023/08/27 03:54:40;;;;;;;2.43;1.83;;;21.70;92.00;21.10;95955.00;;;;5012658;28;20198;-86
2023/08/27 03:57:08;;;;;;;2.20;2.00;;;21.70;92.00;21.10;95940.00;;;;5019490;28;20240;-86
2023/08/27 03:59:35;;;;;;;2.27;2.03;;;21.80;92.00;21.10;95935.00;;;;5023472;28;20271;-86
2023/08/27 04:02:03;;;;;;;2.43;2.23;;;21.80;92.00;21.10;95924.00;;;;5024722;28;20204;-87
2023/08/27 04:04:32;;;;;;;4.23;2.37;;;21.80;91.90;21.10;95910.00;;;;5023233;28;20208;-87
2023/08/27 04:06:59;;;;;;;2.53;2.33;;;21.80;91.90;21.10;95878.00;;;;5019352;28;20304;-87
2023/08/27 04:09:27;;;;;;;2.10;2.00;;;21.70;91.80;21.10;95891.00;;;;5028097;28;20737;-87
2023/08/27 04:11:56;;;;;;;2.77;2.43;;;21.70;91.80;21.10;95905.00;;;;5025887;28;20838;-87
2023/08/27 04:14:23;;;;;;;2.20;2.10;;;21.70;91.70;21.00;95916.00;;;;5014274;28;20206;-87
2023/08/27 04:16:50;;;;;;;2.83;2.43;;;21.70;91.80;21.00;95916.00;;;;5021965;28;20221;-89
2023/08/27 04:19:18;;;;;;;5.53;2.20;;;21.70;91.80;21.00;95907.00;;;;5032124;28;20229;-88
2023/08/27 04:21:45;;;;;;;1.93;1.83;;;21.70;91.90;21.00;95911.00;;;;5016475;28;20201;-89
2023/08/27 04:24:12;;;;;;;3.93;2.10;;;21.70;91.90;21.00;95920.00;;;;5007505;28;20208;-89
2023/08/27 04:26:39;;;;;;;3.23;2.77;;;21.70;91.90;21.00;95907.00;;;;5024538;28;20216;-88
2023/08/27 04:29:08;;;;;;;2.40;2.17;;;21.70;92.00;21.00;95907.00;;;;5008666;28;20578;-89
2023/08/27 04:31:35;;;;;;;2.23;2.07;;;21.70;92.00;21.00;95913.00;;;;5024660;28;20220;-88
2023/08/27 04:34:04;;;;;;;3.70;1.93;;;21.70;92.00;21.00;95916.00;;;;5024596;28;20220;-89
2023/08/27 04:36:33;;;;;;;2.03;1.93;;;21.70;91.90;21.00;95909.00;;;;5022072;28;20225;-89
2023/08/27 04:39:00;;;;;;;2.07;1.93;;;21.70;92.00;21.00;95924.00;;;;5019772;28;20229;-88
2023/08/27 04:41:27;;;;;;;3.40;2.43;;;21.70;92.00;21.00;95924.00;;;;5032990;28;20224;-88
2023/08/27 04:43:54;;;;;;;2.27;2.07;;;21.70;92.00;21.00;95934.00;;;;5029607;28;20212;-88
2023/08/27 04:46:24;;;;;;;2.10;2.00;;;21.70;92.00;21.00;95941.00;;;;5046230;28;20217;-88
2023/08/27 04:48:52;;;;;;;2.33;2.23;;;21.70;91.90;21.00;95938.00;;;;5045697;28;20277;-87
2023/08/27 04:51:19;;;;;;;2.30;1.93;;;21.70;91.90;21.00;95935.00;;;;5042152;28;20725;-88
2023/08/27 04:53:47;;;;;;;2.37;2.17;;;21.70;91.90;21.00;95922.00;;;;5043785;28;20215;-88
2023/08/27 04:56:14;;;;;;;2.27;2.17;;;21.70;91.90;21.00;95926.00;;;;5026195;28;20214;-87
2023/08/27 04:58:41;;;;;;;2.47;2.10;;;21.70;92.20;21.00;95918.00;;;;5049130;28;20285;-87
2023/08/27 05:01:10;;;;;;;2.30;2.20;;;21.70;91.90;21.00;95934.00;;;;5039681;28;20266;-88
2023/08/27 05:03:39;;;;;;;2.13;1.97;;;21.70;92.00;21.00;95933.00;;;;5045911;28;20236;-89
2023/08/27 05:06:08;;;;;;;2.60;2.40;;;21.70;92.10;21.10;95933.00;;;;5028283;28;20296;-88
2023/08/27 05:08:35;;;;;;;2.33;2.13;;;21.70;92.10;21.10;95939.00;;;;5021142;28;20577;-88
2023/08/27 05:11:03;;;;;;;2.30;2.20;;;21.70;92.10;21.10;95933.00;;;;5027706;28;20280;-88
2023/08/27 05:13:30;;;;;;;2.13;1.93;;;21.70;92.10;21.10;95929.00;;;;5028695;28;20713;-88
2023/08/27 05:15:57;;;;;;;3.10;2.00;;;21.70;92.00;21.10;95932.00;;;;5020631;28;20236;-88
2023/08/27 05:18:24;;;;;;;2.20;2.00;;;21.70;92.00;21.10;95919.00;;;;5020494;28;20207;-88
2023/08/27 05:20:53;;;;;;;1.97;1.87;;;21.70;92.00;21.10;95932.00;;;;5017769;28;20203;-89
2023/08/27 05:23:22;;;;;;;2.07;1.97;;;21.70;92.00;21.10;95941.00;;;;5023585;28;20205;-88
2023/08/27 05:25:50;;;;;;;2.20;2.10;;;21.80;92.00;21.10;95943.00;;;;5018113;28;20229;-89
2023/08/27 05:28:17;;;;;;;3.50;2.53;;;21.80;92.00;21.10;95950.00;;;;5019796;28;20233;-88
2023/08/27 05:30:45;;;;;;;2.30;2.17;;;21.80;92.30;21.10;95947.00;;;;5027036;28;20563;-89
2023/08/27 05:33:13;;;;;;;2.27;2.17;;;21.80;92.00;21.10;95947.00;;;;5019340;28;20574;-88
2023/08/27 05:35:41;;;;;;;2.60;2.40;;;21.80;92.00;21.10;95945.00;;;;5015537;28;20217;-88
2023/08/27 05:38:10;;;;;;;2.43;2.23;;;21.80;91.90;21.10;95939.00;;;;5022598;28;20201;-88
2023/08/27 05:40:39;;;;;;;2.33;2.20;;;21.80;91.90;21.10;95946.00;;;;5019230;28;20228;-88
2023/08/27 05:43:06;;;;;;;1.93;1.83;;;21.80;91.90;21.10;95943.00;;;;5026176;28;20205;-88
2023/08/27 05:45:35;;;;;;;1.70;1.60;;;21.80;91.80;21.10;95940.00;;;;5023637;28;20217;-88
2023/08/27 05:48:02;;;;;;;2.37;1.50;;;21.80;91.80;21.10;95946.00;;;;5021304;28;20296;-89
2023/08/27 05:50:29;;;;;;;1.50;1.40;;;21.80;91.80;21.10;95946.00;;;;5028106;28;20735;-89
2023/08/27 05:52:56;;;;;;;1.73;1.63;;;21.80;91.80;21.10;95966.00;;;;5016119;28;20205;-88
2023/08/27 05:55:25;;;;;;;1.50;1.40;;;21.80;91.70;21.10;95966.00;;;;5003537;28;20224;-88
2023/08/27 05:57:52;;;;;;;1.57;1.47;;;21.80;91.60;21.10;95971.00;;;;5022625;28;20303;-88
2023/08/27 06:00:20;;;;;;;1.70;1.60;;;21.80;91.60;21.10;95957.00;;;;5029082;28;20217;-88
2023/08/27 06:02:47;;;;;;;1.60;1.50;;;21.80;91.60;21.10;95955.00;;;;5023235;28;20213;-88
2023/08/27 06:05:16;;;;;;;2.70;1.60;;;21.80;91.60;21.10;95960.00;;;;5028795;28;20217;-88
2023/08/27 06:07:44;;;;;;;1.70;1.60;;;21.70;91.50;21.10;95967.00;;;;5017084;28;20293;-88
2023/08/27 06:10:11;;;;;;;1.77;1.67;;;21.70;91.50;21.10;95970.00;;;;5006031;28;20292;-88
2023/08/27 06:12:40;;;;;;;1.57;1.47;;;21.70;91.90;21.10;95959.00;;;;5015016;28;20197;-89
2023/08/27 06:15:09;;;;;;;1.40;1.30;;;21.70;91.60;21.10;95959.00;;;;5022549;28;20220;-88
2023/08/27 06:17:36;;;;;;;1.67;1.57;;;21.70;91.60;21.10;95964.00;;;;5011570;28;20281;-89
2023/08/27 06:20:05;;;;;;;2.33;1.70;;;21.70;91.60;21.10;95976.00;;;;5020612;28;20221;-88
2023/08/27 06:22:32;;;;;;;1.57;1.47;;;21.70;91.60;21.10;95965.00;;;;5010041;28;20229;-88
2023/08/27 06:24:59;;;;;;;2.13;1.67;;;21.70;91.60;21.10;95963.00;;;;5019810;28;20250;-88
2023/08/27 06:27:26;;;;;;;1.50;1.40;;;21.70;91.60;21.10;95962.00;;;;5019710;28;20288;-89
2023/08/27 06:29:55;;;;;;;1.47;1.37;;;21.70;91.70;21.10;95974.00;;;;5016096;28;20202;-88
2023/08/27 06:32:22;;;;;;;1.30;1.20;;;21.70;91.70;21.10;95982.00;;;;5030181;28;20197;-88
2023/08/27 06:34:49;;;;;;;3.57;1.43;;;21.70;91.80;21.20;95977.00;;;;5020467;28;20225;-88
2023/08/27 06:37:17;;;;;;;1.33;1.23;;;21.80;91.80;21.20;95982.00;;;;5020355;28;20611;-88
2023/08/27 06:39:44;;;;;;;1.40;1.30;;;21.80;92.10;21.20;95990.00;;;;5026658;28;20228;-88
2023/08/27 06:42:12;;;;;;;1.83;1.47;;;21.80;91.80;21.20;95983.00;;;;5009678;28;20209;-88
2023/08/27 06:44:39;;;;;;;1.30;1.20;;;21.80;91.80;21.20;95983.00;;;;5023202;28;20251;-88
2023/08/27 06:47:08;;;;;;;1.80;1.30;;;21.80;91.80;21.20;95980.00;;;;5004908;28;20211;-89
2023/08/27 06:49:36;;;;;;;1.50;1.40;;;21.80;91.80;21.20;95984.00;;;;5023418;28;20223;-88
2023/08/27 06:52:04;;;;;;;1.60;1.50;;;21.80;91.90;21.20;95990.00;;;;5014173;28;20202;-88
2023/08/27 06:54:31;;;;;;;1.27;1.27;;;21.90;92.30;21.30;95984.00;;;;5024534;28;20206;-88
2023/08/27 06:56:58;;;;;;;1.17;1.10;;;21.90;92.00;21.30;95975.00;;;;5026604;28;20216;-88
2023/08/27 06:59:26;;;;;;;1.53;1.43;;;21.90;92.00;21.30;95959.00;;;;5026101;28;20221;-88
2023/08/27 07:01:53;;;;;;;2.17;1.50;;;21.90;91.90;21.30;95959.00;;;;5019970;28;20194;-87
2023/08/27 07:04:23;;;;;;;1.20;1.20;;;21.90;92.00;21.30;95955.00;;;;5015628;28;20276;-87
2023/08/27 07:06:50;;;;;;;1.23;1.13;;;21.90;92.00;21.30;95974.00;;;;5022904;28;20214;-88
2023/08/27 07:09:18;;;;;;;1.40;1.30;;;22.00;92.30;21.40;95973.00;;;;5030427;28;20667;-88
2023/08/27 07:11:45;;;;;;;1.50;1.40;;;22.00;92.00;21.40;95973.00;;;;5024462;28;20197;-88
2023/08/27 07:14:12;;;;;;;1.20;1.20;;;22.00;92.00;21.40;95962.00;;;;5029391;28;20276;-89
2023/08/27 07:16:39;;;;;;;1.50;1.40;;;22.00;91.90;21.40;95963.00;;;;5040368;28;20687;-88
2023/08/27 07:19:06;;;;;;;1.23;1.20;;;22.00;91.80;21.40;95959.00;;;;5025828;28;20274;-88
2023/08/27 07:21:35;;;;;;;1.50;1.40;;;22.10;91.80;21.40;95955.00;;;;5032806;28;20197;-88
2023/08/27 07:24:03;;;;;;;1.27;1.23;;;22.00;91.60;21.40;95944.00;;;;5034620;28;20204;-88
2023/08/27 07:26:32;;;;;;;1.40;1.30;;;22.10;91.70;21.40;95951.00;;;;5018108;28;20301;-88
2023/08/27 07:29:00;;;;;;;1.30;1.20;;;22.00;91.70;21.40;95957.00;;;;5025901;28;20197;-88
2023/08/27 07:31:29;;;;;;;1.10;1.10;;;22.10;91.80;21.40;95950.00;;;;5024163;28;20612;-88
2023/08/27 07:33:56;;;;;;;1.73;1.10;;;22.10;91.80;21.40;95940.00;;;;5020463;28;20248;-88
2023/08/27 07:36:25;;;;;;;1.60;1.50;;;22.10;91.70;21.40;95937.00;;;;5022821;28;20215;-88
2023/08/27 07:38:53;;;;;;;1.67;1.57;;;22.10;91.80;21.40;95953.00;;;;5021234;28;20557;-88
2023/08/27 07:41:20;;;;;;;1.93;1.77;;;22.10;91.80;21.50;95959.00;;;;5023081;28;20222;-88
2023/08/27 07:43:47;;;;;;;2.63;1.77;;;22.10;91.80;21.50;95955.00;;;;5027109;28;20313;-88
2023/08/27 07:46:15;;;;;;;1.40;1.30;;;22.10;92.20;21.50;95970.00;;;;5028831;28;20226;-88
2023/08/27 07:48:42;;;;;;;1.20;1.20;;;22.10;91.90;21.50;95983.00;;;;5010933;28;20206;-88
2023/08/27 07:51:09;;;;;;;1.60;1.47;;;22.10;91.90;21.50;95977.00;;;;5019867;28;20205;-88
2023/08/27 07:53:36;;;;;;;1.50;1.40;;;22.20;91.80;21.50;95973.00;;;;5020786;28;20277;-88
2023/08/27 07:56:05;;;;;;;1.17;1.17;;;22.20;91.90;21.50;95982.00;;;;5019049;28;20656;-88
2023/08/27 07:58:32;;;;;;;1.40;1.23;;;22.20;91.80;21.50;95984.00;;;;5019357;28;20201;-87
2023/08/27 08:01:02;;;;;;;1.67;1.40;;;22.20;91.80;21.50;95975.00;;;;5019632;28;20229;-88
2023/08/27 08:03:30;;;;;;;1.40;1.30;;;22.20;92.10;21.60;95974.00;;;;5022034;28;20232;-88
2023/08/27 08:05:57;;;;;;;1.20;1.10;;;22.20;91.80;21.60;95965.00;;;;5020595;28;20229;-87
2023/08/27 08:08:24;;;;;;;1.67;1.57;;;22.20;91.80;21.60;95971.00;;;;5021805;28;20197;-88
2023/08/27 08:10:56;;;;;;;1.40;1.30;;;22.30;91.90;21.60;95972.00;;;;5031842;28;20282;-88
2023/08/27 08:13:25;;;;;;;1.60;1.50;;;22.30;91.90;21.60;95991.00;;;;5033043;28;20605;-87
2023/08/27 08:15:53;;;;;;;1.33;1.20;;;22.30;91.90;21.60;95987.00;;;;5026667;28;20218;-87
2023/08/27 08:18:21;;;;;;;1.00;1.00;;;22.30;92.00;21.60;95985.00;;;;5014252;28;20198;-88
2023/08/27 08:20:48;;;;;;;2.60;1.40;;;22.30;91.90;21.70;95997.00;;;;5002957;28;20621;-88
2023/08/27 08:23:15;;;;;;;1.67;1.33;;;22.30;91.90;21.70;95987.00;;;;5020436;28;20199;-87
2023/08/27 08:25:44;;;;;;;1.23;1.13;;;22.30;91.90;21.70;95980.00;;;;5023886;28;20213;-88
2023/08/27 08:28:11;;;;;;;1.53;1.27;;;22.30;91.90;21.70;95974.00;;;;5016859;28;20729;-87
2023/08/27 08:30:48;;;;;;;1.87;1.17;;;22.30;91.90;21.70;95962.00;;;;5024616;28;20285;-87
2023/08/27 08:33:16;;;;;;;1.20;1.10;;;22.30;91.70;21.70;95965.00;;;;5023958;28;20290;-87
2023/08/27 08:35:43;;;;;;;2.00;1.40;;;22.30;91.80;21.70;95961.00;;;;5017019;28;20214;-88
2023/08/27 08:38:11;;;;;;;1.70;1.60;;;22.30;91.70;21.70;95959.00;;;;5031137;28;20202;-87
2023/08/27 08:40:45;;;;;;;1.47;1.37;;;22.30;91.70;21.60;95960.00;;;;5023839;28;20715;-88
2023/08/27 08:43:21;;;;;;;1.00;1.00;;;22.30;91.60;21.60;95961.00;;;;5021655;28;20642;-88
2023/08/27 08:46:03;;;;;;;1.93;1.30;;;22.30;91.60;21.60;95960.00;;;;5010915;28;20217;-89
2023/08/27 08:48:38;;;;;;;0.93;0.93;;;22.30;91.40;21.60;95983.00;;;;5019028;28;20216;-90
2023/08/27 08:51:08;;;;;;;1.00;0.97;;;22.30;91.40;21.60;95975.00;;;;5010998;28;20197;-89
2023/08/27 08:53:42;;;;;;;1.40;1.30;;;22.20;91.50;21.60;95970.00;;;;5028918;28;20194;-89
2023/08/27 08:56:16;;;;;;;1.87;1.00;;;22.20;91.50;21.50;95962.00;;;;5030276;28;20226;-88
2023/08/27 08:58:50;;;;;;;1.10;1.10;;;22.20;91.40;21.50;95975.00;;;;5022834;28;20193;-88
2023/08/27 09:01:22;;;;;;;1.60;1.50;;;22.20;91.60;21.50;95994.00;;;;5006930;28;20221;-89
2023/08/27 09:03:51;;;;;;;1.40;1.30;;;22.10;91.60;21.50;95993.00;;;;5023887;28;20200;-90
2023/08/27 09:06:19;;;;;;;1.87;1.60;;;22.20;91.80;21.50;95997.00;;;;5025548;28;20229;-89
2023/08/27 09:08:47;;;;;;;1.60;1.50;;;22.10;91.90;21.50;96002.00;;;;5021279;28;20280;-89
2023/08/27 09:11:16;;;;;;;1.63;1.53;;;22.20;92.10;21.60;96003.00;;;;5028685;28;20429;-90
2023/08/27 09:13:43;;;;;;;1.70;1.60;;;22.20;92.00;21.60;96003.00;;;;5019907;28;20191;-89
2023/08/27 09:16:11;;;;;;;1.80;1.70;;;22.20;92.00;21.60;95994.00;;;;5027121;28;20217;-89
2023/08/27 09:18:40;;;;;;;2.30;2.17;;;22.20;92.10;21.60;95995.00;;;;5027921;28;20659;-89
2023/08/27 09:21:07;;;;;;;2.40;2.20;;;22.20;92.10;21.60;95994.00;;;;5020991;28;20250;-88
2023/08/27 09:23:37;;;;;;;2.30;2.20;;;22.20;92.50;21.70;95987.00;;;;5031454;28;20667;-89
2023/08/27 09:26:07;;;;;;;2.50;2.30;;;22.20;92.20;21.70;95993.00;;;;5031120;28;20304;-88
2023/08/27 09:28:34;;;;;;;2.40;2.20;;;22.30;92.10;21.70;95988.00;;;;5024580;28;20247;-88
2023/08/27 09:31:02;;;;;;;2.60;2.40;;;22.30;92.10;21.70;95985.00;;;;5025323;28;20202;-88
2023/08/27 09:33:39;;;;;;;3.17;2.60;;;22.30;92.00;21.70;95980.00;;;;5039666;28;20285;-89
2023/08/27 09:36:09;;;;;;;2.30;2.13;;;22.30;91.80;21.70;95988.00;;;;5035839;28;20217;-89
2023/08/27 09:38:40;;;;;;;3.23;2.43;;;22.30;91.80;21.70;95981.00;;;;5047427;28;20186;-89
2023/08/27 09:41:15;;;;;;;3.13;2.70;;;22.30;91.90;21.70;95987.00;;;;5043860;28;20912;-87
2023/08/27 09:43:53;;;;;;;2.50;2.33;;;22.30;91.80;21.70;95993.00;;;;5032963;28;20213;-89
2023/08/27 09:46:20;;;;;;;2.50;2.30;;;22.30;91.90;21.70;95995.00;;;;5013411;28;20707;-89
2023/08/27 09:48:58;;;;;;;2.70;2.50;;;22.30;91.90;21.70;95994.00;;;;5022045;28;20734;-89
2023/08/27 09:51:29;;;;;;;3.23;2.23;;;22.30;91.80;21.70;95999.00;;;;5012065;28;20208;-89
2023/08/27 09:53:57;;;;;;;3.00;2.37;;;22.30;91.90;21.80;96001.00;;;;5015828;28;20206;-89
2023/08/27 09:56:25;;;;;;;2.77;2.40;;;22.40;91.90;21.80;96001.00;;;;5022238;28;20218;-89
2023/08/27 09:58:54;;;;;;;2.20;2.10;;;22.40;91.80;21.80;95995.00;;;;5020657;28;20202;-89
2023/08/27 10:01:23;;;;;;;2.70;2.43;;;22.40;91.80;21.80;95995.00;;;;5029216;28;20644;-89
2023/08/27 10:03:52;;;;;;;2.10;2.00;;;22.40;91.80;21.80;95990.00;;;;5014869;28;20204;-89
2023/08/27 10:06:19;;;;;;;1.97;1.87;;;22.40;91.80;21.80;95991.00;;;;5016959;28;20758;-88
2023/08/27 10:08:55;;;;;;;2.13;2.03;;;22.40;91.70;21.80;95978.00;;;;5025162;28;20221;-89
2023/08/27 10:11:43;;;;;;;1.77;1.67;;;22.40;91.70;21.80;95974.00;;;;5025595;28;20285;-89
2023/08/27 10:14:11;;;;;;;1.90;1.80;;;22.40;91.60;21.80;95982.00;;;;5023977;28;20281;-89
2023/08/27 10:16:41;;;;;;;2.07;1.97;;;22.40;91.60;21.80;95975.00;;;;5026056;28;20301;-89
2023/08/27 10:19:14;;;;;;;1.53;1.43;;;22.30;91.50;21.70;95982.00;;;;5027471;28;20206;-89
2023/08/27 10:21:50;;;;;;;1.70;1.60;;;22.30;91.30;21.70;95978.00;;;;5015667;28;20231;-89
2023/08/27 10:24:20;;;;;;;2.20;1.77;;;22.30;91.40;21.70;95965.00;;;;5023756;28;20290;-88
2023/08/27 10:26:48;;;;;;;1.63;1.53;;;22.30;91.30;21.70;95960.00;;;;5019821;28;20226;-89
2023/08/27 10:29:15;;;;;;;1.90;1.53;;;22.30;91.40;21.70;95956.00;;;;5027224;28;20233;-88
2023/08/27 10:31:47;;;;;;;1.60;1.50;;;22.30;91.40;21.70;95956.00;;;;5026387;28;20280;-88
2023/08/27 10:34:14;;;;;;;1.53;1.43;;;22.30;91.30;21.70;95962.00;;;;5026910;28;20297;-88
2023/08/27 10:36:54;;;;;;;1.63;1.53;;;22.30;91.30;21.70;95963.00;;;;5025239;28;20225;-88
2023/08/27 10:39:38;;;;;;;1.67;1.57;;;22.20;91.30;21.60;95950.00;;;;5032186;28;20689;-87
2023/08/27 10:42:06;;;;;;;1.73;1.63;;;22.20;91.20;21.60;95951.00;;;;5021937;28;20217;-88
2023/08/27 10:44:39;;;;;;;2.07;1.70;;;22.20;91.40;21.60;95945.00;;;;5028326;28;20247;-88
2023/08/27 10:47:24;;;;;;;1.70;1.60;;;22.20;91.50;21.60;95936.00;;;;5020313;28;20201;-87
2023/08/27 10:49:53;;;;;;;1.77;1.67;;;22.20;91.40;21.70;95933.00;;;;5018470;28;20663;-87
2023/08/27 10:52:27;;;;;;;1.60;1.50;;;22.20;91.50;21.70;95928.00;;;;5017073;28;20229;-87
2023/08/27 10:55:09;;;;;;;3.23;2.03;;;22.20;91.60;21.70;95924.00;;;;5025344;28;20250;-87
2023/08/27 10:57:38;;;;;;;1.77;1.67;;;22.30;91.50;21.70;95932.00;;;;5018430;28;20285;-87
2023/08/27 11:00:13;;;;;;;1.70;1.53;;;22.20;91.60;21.70;95929.00;;;;5026790;28;20589;-88
2023/08/27 11:03:13;;;;;;;2.03;1.77;;;22.20;91.50;21.70;95930.00;;;;5025449;28;20670;-88